KACB/ACB METAR and TAF weather

Enter ICAO airport designator
Station Type Date Time Source
KACB METAR 2019/08/24 19:55 UTC NOAA

KACB 241955Z AUTO 29007KT 270V330 10SM CLR 24/11 A3028 RMK AO2 T02440106


Station Type Date Time Source
KACB Decoded METAR 2019/08/24 19:55 UTC NOAA

Station name not available
Aug 24, 2019 - 03:55 PM EDT / 2019.08.24 1955 UTC
Wind: from the WNW (290 degrees) at 8 MPH (7 KT) (direction variable):0
Visibility: 10 mile(s):0
Sky conditions: clear
Temperature: 75.9 F (24.4 C)
Dew Point: 51.1 F (10.6 C)
Relative Humidity: 41%
Pressure (altimeter): 30.28 in. Hg (1025 hPa)
ob: KACB 241955Z AUTO 29007KT 270V330 10SM CLR 24/11 A3028 RMK AO2 T02440106
cycle: 20

Station Type Date Time Source
KACB TAF UTC NOAA

Error!

Example: see airport list